createdAt,value
2018-05-10T00:00:13.883Z,58.98
2018-05-10T00:02:41.506Z,59.27
2018-05-10T00:05:09.223Z,59.30
2018-05-10T00:07:36.820Z,59.12
2018-05-10T00:10:04.599Z,59.62
2018-05-10T00:12:32.198Z,59.32
2018-05-10T00:14:59.848Z,59.49
2018-05-10T00:17:27.442Z,59.64
2018-05-10T00:19:55.121Z,59.72
2018-05-10T00:22:22.843Z,59.95
2018-05-10T00:24:50.419Z,60.45
2018-05-10T00:27:18.048Z,60.34
2018-05-10T00:29:45.666Z,60.89
2018-05-10T00:32:13.358Z,61.36
2018-05-10T00:34:40.972Z,60.92
2018-05-10T00:37:08.622Z,60.41
2018-05-10T00:39:36.250Z,60.55
2018-05-10T00:42:04.003Z,61.04
2018-05-10T00:44:31.617Z,61.03
2018-05-10T00:46:59.313Z,61.04
2018-05-10T00:49:26.909Z,61.37
2018-05-10T00:51:54.673Z,61.38
2018-05-10T00:54:33.899Z,61.70
2018-05-10T00:57:01.604Z,61.54
2018-05-10T00:59:29.244Z,61.65
2018-05-10T01:01:56.897Z,61.60
2018-05-10T01:04:24.508Z,61.23
2018-05-10T01:06:52.169Z,61.48
2018-05-10T01:09:19.812Z,61.29
2018-05-10T01:11:47.536Z,61.14
2018-05-10T01:14:15.185Z,60.90
2018-05-10T01:16:42.803Z,60.98
2018-05-10T01:19:10.485Z,61.08
2018-05-10T01:21:38.089Z,60.82
2018-05-10T01:24:05.744Z,60.99
2018-05-10T01:26:33.374Z,61.24
2018-05-10T01:29:01.025Z,60.78
2018-05-10T01:31:28.637Z,60.60
2018-05-10T01:33:56.298Z,60.67
2018-05-10T01:36:23.906Z,60.32
2018-05-10T01:38:51.558Z,60.38
2018-05-10T01:41:19.203Z,60.85
2018-05-10T01:43:46.889Z,61.11
2018-05-10T01:46:14.486Z,61.37
2018-05-10T01:48:42.125Z,61.63
2018-05-10T01:51:09.723Z,61.37
2018-05-10T01:53:37.364Z,61.46
2018-05-10T01:56:05.022Z,61.52
2018-05-10T01:58:32.762Z,61.64
2018-05-10T02:01:00.394Z,61.23
2018-05-10T02:03:28.063Z,61.65
2018-05-10T02:05:55.711Z,62.16
2018-05-10T02:08:23.367Z,62.72
2018-05-10T02:10:51.088Z,63.37
2018-05-10T02:13:18.785Z,63.81
2018-05-10T02:15:46.509Z,64.43
2018-05-10T02:18:14.119Z,64.50
2018-05-10T02:20:41.802Z,64.33
2018-05-10T02:23:10.537Z,64.70
2018-05-10T02:25:39.211Z,64.60
2018-05-10T02:28:08.090Z,65.47
2018-05-10T02:30:35.821Z,65.02
2018-05-10T02:33:03.723Z,64.82
2018-05-10T02:35:31.514Z,64.89
2018-05-10T02:37:59.428Z,64.52
2018-05-10T02:40:27.085Z,64.36
2018-05-10T02:42:54.712Z,64.14
2018-05-10T02:45:22.407Z,64.29
2018-05-10T02:47:50.080Z,65.04
2018-05-10T02:50:17.734Z,65.45
2018-05-10T02:52:45.362Z,65.39
2018-05-10T02:55:13.226Z,64.97
2018-05-10T02:57:40.992Z,64.49
2018-05-10T03:00:08.609Z,64.39
2018-05-10T03:02:36.256Z,64.56
2018-05-10T03:05:03.861Z,64.38
2018-05-10T03:07:31.506Z,63.89
2018-05-10T03:09:59.117Z,63.88
2018-05-10T03:12:26.811Z,64.71
2018-05-10T03:14:54.446Z,64.83
2018-05-10T03:17:22.100Z,63.99
2018-05-10T03:19:49.710Z,64.10
2018-05-10T03:22:17.416Z,64.51
2018-05-10T03:24:45.031Z,64.63
2018-05-10T03:27:12.844Z,64.40
2018-05-10T03:29:40.453Z,64.44
2018-05-10T03:32:08.125Z,65.29
2018-05-10T03:34:35.725Z,65.18
2018-05-10T03:37:03.389Z,64.97
2018-05-10T03:39:31.109Z,65.21
2018-05-10T03:41:58.782Z,65.67
2018-05-10T03:44:26.432Z,65.30
2018-05-10T03:46:54.105Z,65.44
2018-05-10T03:49:21.711Z,66.05
2018-05-10T03:51:49.546Z,66.45
2018-05-10T03:54:17.184Z,66.53
2018-05-10T03:56:44.871Z,66.52
2018-05-10T03:59:12.594Z,65.98
2018-05-10T04:01:40.221Z,65.98
2018-05-10T04:07:23.001Z,66.76
2018-05-10T04:12:49.868Z,66.03
2018-05-10T04:15:17.476Z,66.25
2018-05-10T04:17:45.097Z,66.34
2018-05-10T04:20:12.805Z,66.61
2018-05-10T04:22:40.416Z,66.73
2018-05-10T04:25:08.076Z,67.03
2018-05-10T04:27:35.740Z,67.47
2018-05-10T04:30:03.463Z,67.55
2018-05-10T04:32:31.005Z,67.46
2018-05-10T04:34:58.746Z,67.39
2018-05-10T04:37:26.377Z,67.30
2018-05-10T04:39:54.031Z,67.40
2018-05-10T04:42:21.776Z,67.32
2018-05-10T04:44:49.285Z,68.15
2018-05-10T04:47:16.912Z,68.28
2018-05-10T04:49:44.832Z,68.59
2018-05-10T04:52:12.432Z,68.33
2018-05-10T04:54:40.077Z,68.49
2018-05-10T04:57:07.762Z,68.24
2018-05-10T04:59:35.433Z,68.57
2018-05-10T05:02:06.765Z,67.95
2018-05-10T05:04:34.414Z,68.05
2018-05-10T05:07:05.649Z,68.22
2018-05-10T05:09:33.510Z,68.01
2018-05-10T05:12:01.362Z,67.46
2018-05-10T05:14:29.092Z,67.87
2018-05-10T05:16:56.766Z,67.74
2018-05-10T05:19:24.528Z,67.44
2018-05-10T05:21:52.216Z,67.16
2018-05-10T05:24:19.890Z,67.55
2018-05-10T05:26:47.838Z,67.37
2018-05-10T05:29:15.473Z,66.58
2018-05-10T05:31:43.119Z,66.49
2018-05-10T05:34:10.873Z,66.15
2018-05-10T05:36:38.578Z,66.18
2018-05-10T05:39:06.190Z,65.96
2018-05-10T05:41:33.910Z,66.05
2018-05-10T05:44:02.368Z,66.37
2018-05-10T05:46:30.543Z,66.86
2018-05-10T05:48:58.428Z,67.30
2018-05-10T05:51:26.150Z,67.63
2018-05-10T05:53:53.853Z,68.62
2018-05-10T05:56:21.474Z,68.76
2018-05-10T05:58:49.448Z,68.99
2018-05-10T06:01:19.154Z,68.80
2018-05-10T06:03:47.121Z,68.41
2018-05-10T06:06:14.856Z,68.30
2018-05-10T06:08:42.938Z,68.16
2018-05-10T06:11:10.681Z,68.25
2018-05-10T06:13:38.418Z,67.81
2018-05-10T06:16:06.057Z,68.43
2018-05-10T06:18:33.703Z,68.24
2018-05-10T06:21:01.330Z,68.68
2018-05-10T06:23:29.249Z,68.09
2018-05-10T06:25:56.982Z,68.13
2018-05-10T06:28:24.695Z,68.17
2018-05-10T06:30:52.373Z,68.50
2018-05-10T06:33:19.986Z,68.19
2018-05-10T06:35:47.745Z,67.48
2018-05-10T06:38:15.521Z,66.94
2018-05-10T06:40:43.326Z,67.35
2018-05-10T06:43:11.002Z,67.41
2018-05-10T06:45:38.695Z,67.38
2018-05-10T06:48:06.433Z,67.23
2018-05-10T06:50:34.243Z,65.99
2018-05-10T06:53:02.999Z,66.08
2018-05-10T06:55:30.722Z,66.35
2018-05-10T06:57:58.467Z,65.96
2018-05-10T07:00:26.174Z,65.61
2018-05-10T07:02:54.476Z,66.03
2018-05-10T07:05:22.257Z,66.48
2018-05-10T07:07:49.886Z,66.49
2018-05-10T07:10:17.576Z,66.42
2018-05-10T07:12:45.245Z,66.14
2018-05-10T07:15:12.912Z,65.39
2018-05-10T07:17:40.590Z,65.08
2018-05-10T07:20:08.166Z,65.85
2018-05-10T07:22:35.874Z,65.03
2018-05-10T07:25:03.783Z,65.08
2018-05-10T07:27:31.528Z,65.65
2018-05-10T07:29:59.226Z,65.25
2018-05-10T07:32:26.866Z,64.38
2018-05-10T07:34:54.517Z,63.93
2018-05-10T07:37:22.482Z,63.74
2018-05-10T07:39:50.229Z,63.58
2018-05-10T07:42:17.925Z,62.97
2018-05-10T07:44:45.567Z,63.26
2018-05-10T07:47:13.334Z,62.76
2018-05-10T07:49:40.944Z,62.15
2018-05-10T07:52:08.643Z,62.41
2018-05-10T07:54:36.314Z,62.51
2018-05-10T07:57:04.127Z,60.34
2018-05-10T07:59:31.795Z,59.43
2018-05-10T08:01:59.455Z,59.33
2018-05-10T08:04:27.319Z,59.03
2018-05-10T08:06:55.029Z,59.27
2018-05-10T08:09:23.597Z,59.99
2018-05-10T08:11:51.382Z,59.67
2018-05-10T08:14:19.213Z,59.90
2018-05-10T08:16:46.832Z,58.68
2018-05-10T08:19:14.722Z,54.68
2018-05-10T08:21:42.351Z,51.82
2018-05-10T08:24:10.282Z,51.45
2018-05-10T08:26:38.002Z,51.51
2018-05-10T08:29:06.079Z,51.43
2018-05-10T08:31:34.042Z,50.35
2018-05-10T08:34:01.730Z,50.88
2018-05-10T08:36:29.378Z,51.92
2018-05-10T08:38:57.238Z,52.73
2018-05-10T08:41:25.085Z,50.76
2018-05-10T08:43:52.992Z,49.92
2018-05-10T08:46:21.555Z,50.17
2018-05-10T08:48:50.455Z,49.14
2018-05-10T08:51:18.225Z,48.22
2018-05-10T08:53:45.922Z,48.60
2018-05-10T08:56:13.899Z,49.34
2018-05-10T08:58:41.701Z,47.61
2018-05-10T09:01:09.626Z,48.00
2018-05-10T09:03:37.273Z,47.83
2018-05-10T09:06:04.949Z,47.24
2018-05-10T09:08:32.578Z,44.63
2018-05-10T09:11:00.316Z,46.50
2018-05-10T09:13:27.957Z,47.71
2018-05-10T09:15:55.625Z,49.22
2018-05-10T09:18:23.287Z,50.54
2018-05-10T09:20:51.156Z,51.68
2018-05-10T09:23:18.812Z,52.32
2018-05-10T09:25:46.449Z,50.42
2018-05-10T09:28:14.101Z,50.04
2018-05-10T09:30:41.735Z,50.38
2018-05-10T09:33:09.384Z,50.54
2018-05-10T09:35:37.071Z,50.32
2018-05-10T09:38:04.779Z,49.32
2018-05-10T09:40:32.475Z,49.05
2018-05-10T09:43:00.116Z,49.09
2018-05-10T09:45:27.732Z,49.58
2018-05-10T09:47:55.384Z,50.56
2018-05-10T09:50:23.009Z,51.01
2018-05-10T09:52:50.642Z,50.99
2018-05-10T09:55:18.241Z,52.34
2018-05-10T09:57:45.923Z,52.90
2018-05-10T10:00:18.966Z,52.40
2018-05-10T10:02:46.645Z,50.43
2018-05-10T10:05:14.312Z,51.54
2018-05-10T10:07:42.029Z,52.95
2018-05-10T10:10:09.665Z,53.49
2018-05-10T10:12:37.285Z,53.49
2018-05-10T10:15:05.247Z,54.00
2018-05-10T10:17:33.219Z,53.48
2018-05-10T10:20:00.863Z,52.57
2018-05-10T10:22:28.466Z,53.09
2018-05-10T10:24:56.189Z,52.79
2018-05-10T10:27:23.828Z,52.28
2018-05-10T10:29:51.498Z,52.80
2018-05-10T10:32:19.353Z,52.85
2018-05-10T10:34:47.215Z,53.66
2018-05-10T10:37:14.818Z,54.65
2018-05-10T10:39:42.551Z,55.39
2018-05-10T10:42:10.339Z,56.01
2018-05-10T10:44:38.218Z,56.65
2018-05-10T10:47:05.901Z,57.66
2018-05-10T10:49:33.733Z,58.48
2018-05-10T10:52:01.526Z,59.34
2018-05-10T10:54:29.374Z,59.47
2018-05-10T10:56:57.206Z,60.20
2018-05-10T10:59:24.919Z,60.88
2018-05-10T11:01:53.611Z,61.24
2018-05-10T11:04:21.248Z,61.13
2018-05-10T11:06:49.139Z,61.83
2018-05-10T11:09:16.816Z,62.55
2018-05-10T11:11:44.495Z,63.23
2018-05-10T11:14:12.153Z,63.46
2018-05-10T11:16:39.844Z,63.54
2018-05-10T11:19:07.609Z,63.65
2018-05-10T11:21:35.316Z,63.48
2018-05-10T11:24:03.208Z,63.59
2018-05-10T11:26:31.302Z,63.37
2018-05-10T11:29:00.833Z,63.50
2018-05-10T11:31:28.588Z,63.60
2018-05-10T11:33:56.514Z,63.89
2018-05-10T11:36:24.259Z,63.96
2018-05-10T11:38:52.021Z,64.15
2018-05-10T11:41:19.700Z,64.69
2018-05-10T11:43:47.546Z,64.19
2018-05-10T11:46:15.592Z,65.20
2018-05-10T11:48:43.772Z,65.27
2018-05-10T11:51:11.389Z,65.47
2018-05-10T11:53:39.428Z,65.66
2018-05-10T11:56:07.055Z,65.53
2018-05-10T11:58:34.726Z,65.83
2018-05-10T12:01:02.366Z,65.86
2018-05-10T12:03:30.071Z,66.12
2018-05-10T12:05:57.766Z,65.94
2018-05-10T12:08:25.655Z,65.91
2018-05-10T12:10:53.424Z,65.75
2018-05-10T12:13:21.093Z,65.23
2018-05-10T12:15:51.079Z,65.83
2018-05-10T12:18:19.456Z,65.37
2018-05-10T12:20:47.313Z,65.34
2018-05-10T12:23:16.219Z,66.13
2018-05-10T12:25:43.877Z,65.84
2018-05-10T12:28:11.624Z,66.35
2018-05-10T12:30:39.245Z,66.28
2018-05-10T12:33:07.232Z,66.76
2018-05-10T12:36:02.063Z,65.86
2018-05-10T12:38:29.857Z,65.89
2018-05-10T12:40:59.501Z,66.01
2018-05-10T12:43:27.582Z,66.69
2018-05-10T12:48:41.057Z,65.92
2018-05-10T12:51:08.994Z,66.41
2018-05-10T12:53:36.715Z,65.70
2018-05-10T12:56:04.517Z,65.89
2018-05-10T12:58:32.208Z,65.41
2018-05-10T13:01:01.135Z,65.59
2018-05-10T13:03:28.791Z,65.43
2018-05-10T13:05:56.606Z,65.22
2018-05-10T13:08:24.297Z,64.87
2018-05-10T13:10:52.022Z,65.20
2018-05-10T13:13:19.690Z,65.03
2018-05-10T13:15:47.539Z,65.24
2018-05-10T13:18:15.346Z,65.32
2018-05-10T13:20:43.004Z,64.75
2018-05-10T13:23:10.629Z,64.90
2018-05-10T13:25:38.323Z,64.78
2018-05-10T13:28:06.006Z,63.62
2018-05-10T13:30:33.666Z,63.89
2018-05-10T13:33:01.359Z,63.85
2018-05-10T13:35:29.060Z,64.43
2018-05-10T13:37:56.706Z,64.97
2018-05-10T13:40:24.350Z,65.63
2018-05-10T13:42:51.961Z,65.50
2018-05-10T13:45:19.732Z,65.07
2018-05-10T13:47:47.412Z,64.93
2018-05-10T13:50:15.101Z,64.42
2018-05-10T13:52:42.757Z,64.74
2018-05-10T13:55:10.377Z,65.52
2018-05-10T13:57:39.939Z,65.80
2018-05-10T14:00:07.644Z,66.27
2018-05-10T14:02:35.665Z,66.91
2018-05-10T14:05:03.340Z,66.92
2018-05-10T14:07:31.038Z,66.00
2018-05-10T14:10:00.390Z,66.36
2018-05-10T14:12:28.108Z,66.43
2018-05-10T14:14:55.788Z,66.05
2018-05-10T14:17:23.444Z,66.02
2018-05-10T14:19:51.353Z,65.74
2018-05-10T14:22:19.053Z,65.33
2018-05-10T14:24:46.684Z,65.61
2018-05-10T14:27:14.349Z,65.18
2018-05-10T14:29:42.069Z,62.65
2018-05-10T14:32:09.781Z,62.96
2018-05-10T14:34:37.410Z,63.30
2018-05-10T14:37:05.186Z,63.16
2018-05-10T14:39:33.027Z,63.09
2018-05-10T14:42:00.690Z,62.22
2018-05-10T14:44:28.470Z,61.62
2018-05-10T14:46:56.316Z,60.89
2018-05-10T14:49:24.017Z,60.15
2018-05-10T14:51:51.668Z,57.93
2018-05-10T14:54:19.343Z,56.73
2018-05-10T14:56:47.018Z,54.61
2018-05-10T14:59:14.688Z,53.72
2018-05-10T15:01:42.308Z,51.41
2018-05-10T15:04:10.032Z,50.68
2018-05-10T15:06:37.648Z,49.60
2018-05-10T15:09:05.449Z,48.45
2018-05-10T15:11:33.137Z,47.98
2018-05-10T15:14:00.790Z,48.11
2018-05-10T15:16:28.404Z,47.43
2018-05-10T15:18:56.175Z,46.77
2018-05-10T15:21:25.389Z,46.39
2018-05-10T15:23:53.192Z,44.88
2018-05-10T15:26:20.926Z,45.85
2018-05-10T15:28:50.250Z,46.32
2018-05-10T15:31:17.975Z,46.91
2018-05-10T15:33:45.606Z,47.05
2018-05-10T15:36:13.293Z,46.61
2018-05-10T15:38:40.951Z,46.37
2018-05-10T15:41:08.671Z,46.24
2018-05-10T15:43:37.282Z,46.97
2018-05-10T15:46:04.915Z,47.46
2018-05-10T15:48:32.594Z,47.81
2018-05-10T15:51:00.254Z,47.29
2018-05-10T15:53:27.958Z,46.32
2018-05-10T15:55:55.611Z,45.17
2018-05-10T15:58:23.233Z,45.74
2018-05-10T16:00:50.890Z,46.18
2018-05-10T16:03:18.570Z,46.26
2018-05-10T16:05:46.164Z,46.33
2018-05-10T16:08:13.807Z,46.26
2018-05-10T16:10:41.409Z,46.45
2018-05-10T16:13:09.065Z,46.42
2018-05-10T16:15:36.848Z,46.51
2018-05-10T16:18:04.481Z,46.85
2018-05-10T16:20:32.094Z,47.11
2018-05-10T16:22:59.753Z,47.28
2018-05-10T16:25:27.387Z,47.73
2018-05-10T16:27:55.068Z,47.78
2018-05-10T16:30:22.811Z,47.79
2018-05-10T16:32:50.579Z,47.87
2018-05-10T16:35:18.136Z,48.01
2018-05-10T16:37:45.788Z,48.27
2018-05-10T16:40:13.400Z,48.48
2018-05-10T16:42:41.130Z,48.45
2018-05-10T16:45:08.730Z,48.37
2018-05-10T16:47:36.570Z,48.67
2018-05-10T16:50:04.161Z,48.22
2018-05-10T16:52:32.070Z,48.30
2018-05-10T16:54:59.673Z,48.12
2018-05-10T16:57:27.296Z,48.24
2018-05-10T16:59:54.960Z,48.28
2018-05-10T17:02:23.067Z,48.01
2018-05-10T17:04:50.905Z,48.08
2018-05-10T17:07:18.785Z,47.58
2018-05-10T17:09:46.486Z,47.20
2018-05-10T17:12:14.085Z,47.16
2018-05-10T17:14:41.777Z,46.69
2018-05-10T17:17:09.406Z,46.92
2018-05-10T17:19:37.039Z,47.32
2018-05-10T17:22:04.799Z,51.07
2018-05-10T17:24:32.485Z,47.87
2018-05-10T17:27:00.097Z,47.08
2018-05-10T17:29:27.861Z,49.25
2018-05-10T17:31:55.493Z,47.96
2018-05-10T17:34:23.161Z,47.17
2018-05-10T17:36:50.829Z,51.58
2018-05-10T17:39:18.459Z,46.84
2018-05-10T17:41:46.199Z,47.07
2018-05-10T17:44:13.838Z,47.11
2018-05-10T17:46:41.496Z,46.91
2018-05-10T17:49:09.167Z,46.81
2018-05-10T17:51:36.865Z,44.70
2018-05-10T17:54:04.492Z,44.98
2018-05-10T17:56:32.143Z,45.65
2018-05-10T17:58:59.784Z,45.88
2018-05-10T18:01:27.560Z,45.90
2018-05-10T18:03:55.784Z,45.17
2018-05-10T18:06:23.490Z,45.22
2018-05-10T18:08:51.112Z,45.64
2018-05-10T18:11:18.794Z,46.37
2018-05-10T18:13:46.657Z,46.53
2018-05-10T18:16:14.238Z,47.01
2018-05-10T18:18:41.896Z,47.82
2018-05-10T18:21:09.608Z,48.41
2018-05-10T18:23:37.259Z,49.81
2018-05-10T18:26:04.866Z,48.70
2018-05-10T18:28:32.529Z,50.05
2018-05-10T18:31:00.148Z,49.07
2018-05-10T18:33:27.907Z,49.25
2018-05-10T18:35:55.534Z,49.12
2018-05-10T18:38:23.170Z,48.96
2018-05-10T18:40:50.838Z,48.97
2018-05-10T18:43:18.533Z,48.73
2018-05-10T18:45:46.199Z,48.64
2018-05-10T18:48:13.863Z,49.08
2018-05-10T18:50:41.657Z,48.92
2018-05-10T18:53:09.333Z,49.30
2018-05-10T18:55:36.967Z,50.36
2018-05-10T18:58:04.578Z,49.87
2018-05-10T19:00:32.253Z,50.50
2018-05-10T19:02:59.891Z,49.63
2018-05-10T19:05:27.536Z,49.41
2018-05-10T19:07:55.152Z,49.81
2018-05-10T19:10:22.830Z,48.79
2018-05-10T19:12:50.498Z,49.04
2018-05-10T19:15:18.282Z,49.34
2018-05-10T19:17:45.805Z,49.53
2018-05-10T19:20:13.553Z,50.47
2018-05-10T19:22:41.261Z,49.87
2018-05-10T19:25:08.953Z,49.77
2018-05-10T19:27:36.601Z,50.08
2018-05-10T19:30:04.493Z,50.35
2018-05-10T19:32:32.226Z,50.46
2018-05-10T19:34:59.833Z,50.48
2018-05-10T19:37:27.482Z,50.93
2018-05-10T19:39:55.146Z,50.72
2018-05-10T19:42:22.796Z,50.68
2018-05-10T19:44:50.423Z,50.89
2018-05-10T19:47:18.097Z,51.45
2018-05-10T19:49:45.747Z,52.41
2018-05-10T19:52:13.386Z,52.08
2018-05-10T19:54:41.009Z,51.94
2018-05-10T19:57:08.657Z,51.78
2018-05-10T19:59:36.321Z,51.90
2018-05-10T20:02:03.955Z,52.47
2018-05-10T20:04:31.633Z,51.49
2018-05-10T20:06:59.285Z,52.02
2018-05-10T20:09:26.897Z,52.04
2018-05-10T20:11:54.569Z,52.65
2018-05-10T20:14:22.246Z,52.77
2018-05-10T20:16:49.889Z,52.92
2018-05-10T20:19:17.582Z,52.96
2018-05-10T20:21:45.204Z,53.15
2018-05-10T20:24:12.977Z,53.38
2018-05-10T20:26:40.607Z,53.90
2018-05-10T20:29:08.277Z,54.15
2018-05-10T20:31:35.894Z,54.39
2018-05-10T20:34:03.526Z,54.46
2018-05-10T20:36:31.234Z,54.58
2018-05-10T20:38:58.957Z,54.62
2018-05-10T20:41:26.594Z,54.77
2018-05-10T20:43:54.262Z,54.62
2018-05-10T20:46:22.007Z,55.13
2018-05-10T20:48:49.638Z,55.25
2018-05-10T20:51:17.294Z,55.54
2018-05-10T20:53:45.008Z,55.73
2018-05-10T20:56:12.638Z,55.93
2018-05-10T20:58:40.286Z,55.82
2018-05-10T21:01:07.923Z,56.21
2018-05-10T21:03:35.719Z,56.53
2018-05-10T21:06:03.425Z,56.71
2018-05-10T21:08:31.387Z,57.01
2018-05-10T21:10:59.029Z,57.27
2018-05-10T21:13:26.670Z,57.58
2018-05-10T21:15:54.375Z,57.46
2018-05-10T21:18:22.131Z,57.90
2018-05-10T21:20:49.762Z,58.36
2018-05-10T21:23:17.431Z,58.87
2018-05-10T21:25:45.046Z,59.06
2018-05-10T21:28:12.693Z,59.37
2018-05-10T21:30:40.630Z,59.54
2018-05-10T21:33:08.427Z,60.00
2018-05-10T21:35:36.188Z,60.53
2018-05-10T21:38:04.006Z,60.77
2018-05-10T21:40:31.801Z,60.95
2018-05-10T21:42:59.471Z,61.08
2018-05-10T21:45:27.157Z,60.89
2018-05-10T21:47:54.769Z,61.68
2018-05-10T21:50:27.320Z,61.96
2018-05-10T21:52:54.993Z,62.17
2018-05-10T21:55:22.761Z,62.35
2018-05-10T21:57:50.411Z,62.10
2018-05-10T22:00:18.031Z,62.14
2018-05-10T22:02:45.734Z,62.41
2018-05-10T22:05:13.348Z,62.40
2018-05-10T22:07:41.001Z,62.33
2018-05-10T22:10:08.661Z,62.48
2018-05-10T22:12:36.605Z,62.68
2018-05-10T22:15:04.312Z,62.74
2018-05-10T22:17:32.019Z,63.48
2018-05-10T22:19:59.763Z,62.45
2018-05-10T22:22:27.450Z,62.17
2018-05-10T22:24:55.290Z,61.47
2018-05-10T22:27:23.088Z,61.24
2018-05-10T22:29:50.783Z,61.92
2018-05-10T22:32:18.555Z,61.82
2018-05-10T22:34:46.413Z,62.67
2018-05-10T22:37:14.006Z,63.12
2018-05-10T22:39:41.679Z,63.44
2018-05-10T22:42:09.295Z,64.09
2018-05-10T22:44:36.945Z,64.26
2018-05-10T22:47:04.561Z,64.64
2018-05-10T22:49:32.248Z,64.79
2018-05-10T22:51:59.868Z,65.22
2018-05-10T22:54:27.493Z,65.33
2018-05-10T22:56:55.100Z,65.59
2018-05-10T22:59:22.773Z,65.71
2018-05-10T23:01:50.390Z,66.26
2018-05-10T23:04:18.090Z,66.30
2018-05-10T23:06:45.808Z,66.49
2018-05-10T23:09:13.449Z,66.61
2018-05-10T23:11:41.067Z,66.81
2018-05-10T23:14:08.720Z,67.33
2018-05-10T23:16:36.341Z,67.04
2018-05-10T23:19:04.142Z,67.18
2018-05-10T23:21:31.918Z,67.26
2018-05-10T23:23:59.577Z,67.37
2018-05-10T23:26:27.339Z,67.48
2018-05-10T23:28:55.136Z,67.70
2018-05-10T23:31:23.024Z,67.66
2018-05-10T23:33:50.736Z,67.92
2018-05-10T23:36:18.525Z,68.32
2018-05-10T23:38:46.280Z,68.03
2018-05-10T23:41:14.053Z,68.26
2018-05-10T23:43:41.684Z,68.38
2018-05-10T23:46:09.318Z,68.64
2018-05-10T23:48:36.970Z,68.78
2018-05-10T23:51:04.597Z,69.11
2018-05-10T23:53:32.230Z,70.00
2018-05-10T23:55:59.928Z,70.40
2018-05-10T23:58:27.539Z,70.33
